Time,TemperatureF,DewpointF,PressureIn,WindDirection,WindDirectionDegrees,WindSpeedMPH,WindSpeedGustMPH,Humidity,HourlyPrecipIn,Conditions,Clouds,dailyrainin,SoftwareType,DateUTC
2013-06-23 00:01:00,69.4,34.0,26.95,NE,40,0.0,0.0,27,0.00,CLR,,0.00,WeatherDisplay:10.37,2013-06-23 04:01:00,
2013-06-23 00:02:00,69.4,34.0,26.95,NE,40,0.0,0.0,27,0.00,CLR,,0.00,WeatherDisplay:10.37,2013-06-23 04:02:00,
2013-06-23 00:03:00,69.3,33.8,26.95,NE,40,0.0,0.0,27,0.00,CLR,,0.00,WeatherDisplay:10.37,2013-06-23 04:03:00,
2013-06-23 00:08:00,69.3,33.8,26.95,NE,40,0.0,0.0,27,0.00,CLR,,0.00,WeatherDisplay:10.37,2013-06-23 04:08:00,
2013-06-23 00:13:00,69.1,33.7,26.95,NE,40,0.0,0.0,27,0.00,CLR,,0.00,WeatherDisplay:10.37,2013-06-23 04:13:00,
2013-06-23 00:18:00,69.1,36.3,26.95,NE,40,0.0,0.0,30,0.00,CLR,,0.00,WeatherDisplay:10.37,2013-06-23 04:18:00,
2013-06-23 00:23:00,68.9,36.2,26.95,NE,40,0.0,0.0,30,0.00,CLR,,0.00,WeatherDisplay:10.37,2013-06-23 04:23:00,
2013-06-23 00:28:00,68.9,33.5,26.95,NE,40,0.0,0.0,27,0.00,CLR,,0.00,WeatherDisplay:10.37,2013-06-23 04:28:00,
2013-06-23 00:33:00,69.1,33.7,26.95,NE,40,0.0,0.0,27,0.00,CLR,,0.00,WeatherDisplay:10.37,2013-06-23 04:33:00,
2013-06-23 00:38:00,69.1,33.7,26.95,NE,40,0.0,0.0,27,0.00,CLR,,0.00,WeatherDisplay:10.37,2013-06-23 04:38:00,
2013-06-23 00:43:00,69.1,33.7,26.95,NE,40,2.3,0.0,27,0.00,CLR,,0.00,WeatherDisplay:10.37,2013-06-23 04:43:00,
2013-06-23 00:48:00,69.1,33.7,26.95,NE,40,0.0,0.0,27,0.00,CLR,,0.00,WeatherDisplay:10.37,2013-06-23 04:48:00,
2013-06-23 00:53:00,68.9,33.5,26.95,NE,40,0.0,0.0,27,0.00,CLR,,0.00,WeatherDisplay:10.37,2013-06-23 04:53:00,
2013-06-23 00:58:00,68.9,33.5,26.95,NE,40,0.0,0.0,27,0.00,CLR,,0.00,WeatherDisplay:10.37,2013-06-23 04:58:00,
2013-06-23 01:03:00,68.7,33.4,26.95,NE,40,0.0,0.0,27,0.00,CLR,,0.00,WeatherDisplay:10.37,2013-06-23 05:03:00,
2013-06-23 01:08:00,68.7,33.4,26.95,NE,40,0.0,0.0,27,0.00,CLR,,0.00,WeatherDisplay:10.37,2013-06-23 05:08:00,
2013-06-23 01:13:00,68.7,33.4,26.95,NE,40,0.0,0.0,27,0.00,CLR,,0.00,WeatherDisplay:10.37,2013-06-23 05:13:00,
2013-06-23 01:18:00,68.5,33.2,26.95,NE,40,0.0,0.0,27,0.00,CLR,,0.00,WeatherDisplay:10.37,2013-06-23 05:18:00,
2013-06-23 01:23:00,68.2,32.9,26.95,NE,40,0.0,0.0,27,0.00,CLR,,0.00,WeatherDisplay:10.37,2013-06-23 05:23:00,
2013-06-23 01:28:00,68.0,35.4,26.95,NE,40,0.0,0.0,30,0.00,CLR,,0.00,WeatherDisplay:10.37,2013-06-23 05:28:00,
2013-06-23 01:33:00,67.5,34.9,26.95,NE,40,0.0,0.0,30,0.00,CLR,,0.00,WeatherDisplay:10.37,2013-06-23 05:33:00,
2013-06-23 01:38:00,67.1,36.2,26.95,NE,40,0.0,0.0,32,0.00,CLR,,0.00,WeatherDisplay:10.37,2013-06-23 05:38:00,
2013-06-23 01:43:00,67.1,37.0,26.95,NE,40,0.0,0.0,33,0.00,CLR,,0.00,WeatherDisplay:10.37,2013-06-23 05:43:00,
2013-06-23 01:48:00,66.9,36.9,26.95,NE,40,0.0,0.0,33,0.00,CLR,,0.00,WeatherDisplay:10.37,2013-06-23 05:48:00,
2013-06-23 01:53:00,66.7,36.7,26.95,NE,40,0.0,0.0,33,0.00,CLR,,0.00,WeatherDisplay:10.37,2013-06-23 05:53:00,
2013-06-23 01:58:00,66.6,37.3,26.95,NE,40,0.0,0.0,34,0.00,CLR,,0.00,WeatherDisplay:10.37,2013-06-23 05:58:00,
2013-06-23 02:01:00,66.6,37.3,26.95,NE,40,0.0,0.0,34,0.00,CLR,,0.00,WeatherDisplay:10.37,2013-06-23 06:01:00,
2013-06-23 02:06:00,66.4,37.1,26.95,NE,40,0.0,0.0,34,0.00,CLR,,0.00,WeatherDisplay:10.37,2013-06-23 06:06:00,
2013-06-23 02:11:00,66.2,37.0,26.95,NE,40,0.0,0.0,34,0.00,CLR,,0.00,WeatherDisplay:10.37,2013-06-23 06:11:00,
2013-06-23 02:16:00,66.0,38.3,26.95,NE,40,0.0,0.0,36,0.00,CLR,,0.00,WeatherDisplay:10.37,2013-06-23 06:16:00,
2013-06-23 02:21:00,66.0,39.0,26.95,NE,40,0.0,0.0,37,0.00,CLR,,0.00,WeatherDisplay:10.37,2013-06-23 06:21:00,
2013-06-23 02:26:00,65.8,39.5,26.95,NE,40,0.0,0.0,38,0.00,CLR,,0.00,WeatherDisplay:10.37,2013-06-23 06:26:00,
2013-06-23 02:31:00,66.0,39.7,26.95,NE,40,0.0,0.0,38,0.00,CLR,,0.00,WeatherDisplay:10.37,2013-06-23 06:31:00,
2013-06-23 02:36:00,65.8,40.2,26.95,NE,40,0.0,0.0,39,0.00,CLR,,0.00,WeatherDisplay:10.37,2013-06-23 06:36:00,
2013-06-23 02:41:00,65.8,40.8,26.95,NE,40,0.0,0.0,40,0.00,CLR,,0.00,WeatherDisplay:10.37,2013-06-23 06:41:00,
2013-06-23 02:46:00,65.8,41.5,26.95,NE,40,0.0,0.0,41,0.00,CLR,,0.00,WeatherDisplay:10.37,2013-06-23 06:46:00,
2013-06-23 02:51:00,65.8,42.1,26.95,NE,40,0.0,0.0,42,0.00,CLR,,0.00,WeatherDisplay:10.37,2013-06-23 06:51:00,
2013-06-23 02:56:00,66.0,42.3,26.95,NE,40,0.0,0.0,42,0.00,CLR,,0.00,WeatherDisplay:10.37,2013-06-23 06:56:00,
2013-06-23 03:01:00,66.0,42.3,26.95,NE,40,0.0,0.0,42,0.00,CLR,,0.00,WeatherDisplay:10.37,2013-06-23 07:01:00,
2013-06-23 03:06:00,66.0,42.3,26.95,NE,40,0.0,0.0,42,0.00,CLR,,0.00,WeatherDisplay:10.37,2013-06-23 07:06:00,
2013-06-23 03:11:00,66.0,42.9,26.95,NE,40,0.0,0.0,43,0.00,CLR,,0.00,WeatherDisplay:10.37,2013-06-23 07:11:00,
2013-06-23 03:16:00,66.0,42.9,26.95,NE,40,0.0,0.0,43,0.00,CLR,,0.00,WeatherDisplay:10.37,2013-06-23 07:16:00,
2013-06-23 03:21:00,66.0,42.9,26.95,NE,40,0.0,0.0,43,0.00,CLR,,0.00,WeatherDisplay:10.37,2013-06-23 07:21:00,
2013-06-23 03:26:00,66.0,42.9,26.95,NE,40,0.0,0.0,43,0.00,CLR,,0.00,WeatherDisplay:10.37,2013-06-23 07:26:00,
2013-06-23 03:31:00,66.0,42.9,26.95,NE,40,0.0,0.0,43,0.00,CLR,,0.00,WeatherDisplay:10.37,2013-06-23 07:31:00,
2013-06-23 03:36:00,65.8,43.3,26.95,NE,40,0.0,0.0,44,0.00,CLR,,0.00,WeatherDisplay:10.37,2013-06-23 07:36:00,
2013-06-23 03:41:00,65.8,42.7,26.95,NE,40,0.0,0.0,43,0.00,CLR,,0.00,WeatherDisplay:10.37,2013-06-23 07:41:00,
2013-06-23 03:46:00,65.7,42.5,26.95,NE,40,0.0,0.0,43,0.00,CLR,,0.00,WeatherDisplay:10.37,2013-06-23 07:46:00,
2013-06-23 03:51:00,65.7,42.5,26.95,NE,40,0.0,0.0,43,0.00,CLR,,0.00,WeatherDisplay:10.37,2013-06-23 07:51:00,
2013-06-23 03:56:00,65.7,42.5,26.95,NE,40,0.0,0.0,43,0.00,CLR,,0.00,WeatherDisplay:10.37,2013-06-23 07:56:00,
2013-06-23 04:01:00,65.5,42.4,26.95,NE,40,0.0,0.0,43,0.00,CLR,,0.00,WeatherDisplay:10.37,2013-06-23 08:01:00,
2013-06-23 04:06:00,65.5,42.4,26.95,NE,40,0.0,0.0,43,0.00,CLR,,0.00,WeatherDisplay:10.37,2013-06-23 08:06:00,
2013-06-23 04:11:00,65.3,42.2,26.95,NE,40,0.0,0.0,43,0.00,CLR,,0.00,WeatherDisplay:10.37,2013-06-23 08:11:00,
2013-06-23 04:16:00,65.3,42.2,26.95,NE,40,0.0,0.0,43,0.00,CLR,,0.00,WeatherDisplay:10.37,2013-06-23 08:16:00,
2013-06-23 04:21:00,65.3,42.2,26.95,NE,40,0.0,0.0,43,0.00,CLR,,0.00,WeatherDisplay:10.37,2013-06-23 08:21:00,
2013-06-23 04:26:00,65.3,42.2,26.95,NE,40,0.0,0.0,43,0.00,CLR,,0.00,WeatherDisplay:10.37,2013-06-23 08:26:00,
2013-06-23 04:31:00,65.3,41.6,26.95,NE,40,0.0,0.0,42,0.00,CLR,,0.00,WeatherDisplay:10.37,2013-06-23 08:31:00,
2013-06-23 04:36:00,65.1,40.8,26.95,NE,40,0.0,0.0,41,0.00,CLR,,0.00,WeatherDisplay:10.37,2013-06-23 08:36:00,
2013-06-23 04:41:00,65.1,40.2,26.95,NE,40,0.0,0.0,40,0.00,CLR,,0.00,WeatherDisplay:10.37,2013-06-23 08:41:00,
2013-06-23 04:46:00,65.1,40.2,26.95,NE,40,0.0,0.0,40,0.00,CLR,,0.00,WeatherDisplay:10.37,2013-06-23 08:46:00,
2013-06-23 04:51:00,64.9,40.0,26.95,NE,40,0.0,0.0,40,0.00,CLR,,0.00,WeatherDisplay:10.37,2013-06-23 08:51:00,
2013-06-23 04:56:00,64.9,40.0,26.95,NE,40,0.0,0.0,40,0.00,CLR,,0.00,WeatherDisplay:10.37,2013-06-23 08:56:00,
2013-06-23 05:01:00,64.8,39.2,26.95,NE,40,0.0,0.0,39,0.00,CLR,,0.00,WeatherDisplay:10.37,2013-06-23 09:01:00,
2013-06-23 05:06:00,64.6,38.4,26.95,NE,40,0.0,0.0,38,0.00,CLR,,0.00,WeatherDisplay:10.37,2013-06-23 09:06:00,
2013-06-23 05:11:00,64.4,38.2,26.95,NE,40,0.0,0.0,38,0.00,CLR,,0.00,WeatherDisplay:10.37,2013-06-23 09:11:00,
2013-06-23 05:16:00,64.2,38.7,26.95,NE,40,0.0,0.0,39,0.00,CLR,,0.00,WeatherDisplay:10.37,2013-06-23 09:16:00,
2013-06-23 05:21:00,64.2,38.7,26.95,NE,40,0.0,0.0,39,0.00,CLR,,0.00,WeatherDisplay:10.37,2013-06-23 09:21:00,
2013-06-23 05:26:00,64.0,38.6,26.95,NE,40,0.0,0.0,39,0.00,CLR,,0.00,WeatherDisplay:10.37,2013-06-23 09:26:00,
2013-06-23 05:31:00,64.0,38.6,26.95,NE,40,0.0,0.0,39,0.00,CLR,,0.00,WeatherDisplay:10.37,2013-06-23 09:31:00,
2013-06-23 05:36:00,64.0,38.6,26.95,NE,40,0.0,0.0,39,0.00,CLR,,0.00,WeatherDisplay:10.37,2013-06-23 09:36:00,
2013-06-23 05:41:00,64.2,38.1,26.95,NE,40,0.0,0.0,38,0.00,CLR,,0.00,WeatherDisplay:10.37,2013-06-23 09:41:00,
2013-06-23 05:46:00,64.2,39.4,26.95,NE,40,0.0,0.0,40,0.00,CLR,,0.00,WeatherDisplay:10.37,2013-06-23 09:46:00,
2013-06-23 05:51:00,64.2,40.0,26.95,NE,40,0.0,0.0,41,0.00,CLR,,0.00,WeatherDisplay:10.37,2013-06-23 09:51:00,
2013-06-23 05:56:00,64.2,40.0,26.95,NE,40,0.0,0.0,41,0.00,CLR,,0.00,WeatherDisplay:10.37,2013-06-23 09:56:00,
2013-06-23 06:01:00,64.4,39.5,26.95,NE,40,0.0,0.0,40,0.00,CLR,,0.00,WeatherDisplay:10.37,2013-06-23 10:01:00,
2013-06-23 06:06:00,64.6,39.7,26.95,NE,40,0.0,0.0,40,0.00,CLR,,0.00,WeatherDisplay:10.37,2013-06-23 10:06:00,
2013-06-23 06:11:00,64.8,39.9,26.95,NE,40,0.0,0.0,40,0.00,CLR,,0.00,WeatherDisplay:10.37,2013-06-23 10:11:00,
2013-06-23 06:16:00,64.9,40.0,26.95,NE,40,0.0,0.0,40,0.00,CLR,,0.00,WeatherDisplay:10.37,2013-06-23 10:16:00,
2013-06-23 06:21:00,64.9,39.4,26.95,NE,40,0.0,0.0,39,0.00,CLR,,0.00,WeatherDisplay:10.37,2013-06-23 10:21:00,
2013-06-23 06:26:00,65.1,38.9,26.95,NE,40,0.0,0.0,38,0.00,CLR,,0.00,WeatherDisplay:10.37,2013-06-23 10:26:00,
2013-06-23 06:31:00,65.3,38.3,26.95,NE,40,0.0,0.0,37,0.00,CLR,,0.00,WeatherDisplay:10.37,2013-06-23 10:31:00,
2013-06-23 06:36:00,65.5,38.5,26.95,NE,40,0.0,0.0,37,0.00,CLR,,0.00,WeatherDisplay:10.37,2013-06-23 10:36:00,
2013-06-23 06:41:00,65.7,38.0,26.95,NE,40,0.0,0.0,36,0.00,CLR,,0.00,WeatherDisplay:10.37,2013-06-23 10:41:00,
2013-06-23 06:46:00,65.7,37.2,26.95,NE,40,0.0,0.0,35,0.00,CLR,,0.00,WeatherDisplay:10.37,2013-06-23 10:46:00,
2013-06-23 06:51:00,65.7,37.2,26.95,NE,40,0.0,0.0,35,0.00,CLR,,0.00,WeatherDisplay:10.37,2013-06-23 10:51:00,
2013-06-23 06:56:00,65.8,36.7,26.95,NE,40,0.0,0.0,34,0.00,CLR,,0.00,WeatherDisplay:10.37,2013-06-23 10:56:00,
2013-06-23 07:01:00,66.0,36.8,26.95,East,99,0.0,0.0,34,0.00,CLR,,0.00,WeatherDisplay:10.37,2013-06-23 11:01:00,
2013-06-23 07:06:00,66.2,36.2,26.95,East,99,0.0,0.0,33,0.00,CLR,,0.00,WeatherDisplay:10.37,2013-06-23 11:06:00,
2013-06-23 07:11:00,66.4,36.4,26.95,East,99,0.0,0.0,33,0.00,CLR,,0.00,WeatherDisplay:10.37,2013-06-23 11:11:00,
2013-06-23 07:16:00,66.6,35.8,26.95,ENE,70,2.3,0.0,32,0.00,CLR,,0.00,WeatherDisplay:10.37,2013-06-23 11:16:00,
2013-06-23 07:21:00,66.9,36.1,26.95,ENE,70,0.0,0.0,32,0.00,CLR,,0.00,WeatherDisplay:10.37,2013-06-23 11:21:00,
2013-06-23 07:26:00,67.3,36.4,26.95,ESE,111,0.0,0.0,32,0.00,CLR,,0.00,WeatherDisplay:10.37,2013-06-23 11:26:00,
2013-06-23 07:31:00,67.6,35.1,26.95,SSE,153,0.0,0.0,30,0.00,CLR,,0.00,WeatherDisplay:10.37,2013-06-23 11:31:00,
2013-06-23 07:36:00,68.0,35.4,26.95,ESE,115,0.0,0.0,30,0.00,CLR,,0.00,WeatherDisplay:10.37,2013-06-23 11:36:00,
2013-06-23 07:41:00,68.2,35.5,26.95,NW,312,2.3,0.0,30,0.00,CLR,,0.00,WeatherDisplay:10.37,2013-06-23 11:41:00,
2013-06-23 07:46:00,68.4,35.7,26.95,NW,312,0.0,0.0,30,0.00,CLR,,0.00,WeatherDisplay:10.37,2013-06-23 11:46:00,
2013-06-23 07:51:00,68.5,35.9,26.95,NW,312,0.0,0.0,30,0.00,CLR,,0.00,WeatherDisplay:10.37,2013-06-23 11:51:00,
2013-06-23 07:56:00,68.9,36.2,26.95,NNE,33,0.0,0.0,30,0.00,CLR,,0.00,WeatherDisplay:10.37,2013-06-23 11:56:00,
2013-06-23 08:01:00,69.1,33.7,26.95,NE,51,0.0,0.0,27,0.00,CLR,,0.00,WeatherDisplay:10.37,2013-06-23 12:01:00,
2013-06-23 08:06:00,69.4,34.0,26.95,NE,51,0.0,0.0,27,0.00,CLR,,0.00,WeatherDisplay:10.37,2013-06-23 12:06:00,
2013-06-23 08:11:00,69.6,36.8,26.95,NE,51,0.0,0.0,30,0.00,CLR,,0.00,WeatherDisplay:10.37,2013-06-23 12:11:00,
2013-06-23 08:16:00,69.6,34.1,26.95,NE,51,0.0,0.0,27,0.00,CLR,,0.00,WeatherDisplay:10.37,2013-06-23 12:16:00,
2013-06-23 08:21:00,69.8,36.1,26.95,NE,51,0.0,0.0,29,0.00,CLR,,0.00,WeatherDisplay:10.37,2013-06-23 12:21:00,
2013-06-23 08:26:00,70.5,34.9,26.95,NE,51,0.0,0.0,27,0.00,CLR,,0.00,WeatherDisplay:10.37,2013-06-23 12:26:00,
2013-06-23 08:31:00,70.7,35.1,26.95,NE,51,0.0,0.0,27,0.00,CLR,,0.00,WeatherDisplay:10.37,2013-06-23 12:31:00,
2013-06-23 08:36:00,70.5,34.9,26.95,NE,51,0.0,0.0,27,0.00,CLR,,0.00,WeatherDisplay:10.37,2013-06-23 12:36:00,
2013-06-23 08:41:00,70.3,34.8,26.95,NE,51,0.0,0.0,27,0.00,CLR,,0.00,WeatherDisplay:10.37,2013-06-23 12:41:00,
2013-06-23 08:46:00,70.3,34.8,26.95,NE,51,0.0,0.0,27,0.00,CLR,,0.00,WeatherDisplay:10.37,2013-06-23 12:46:00,
2013-06-23 08:51:00,70.0,36.2,26.95,NE,51,0.0,0.0,29,0.00,CLR,,0.00,WeatherDisplay:10.37,2013-06-23 12:51:00,
2013-06-23 08:56:00,70.0,36.2,26.95,NE,51,0.0,0.0,29,0.00,CLR,,0.00,WeatherDisplay:10.37,2013-06-23 12:56:00,
2013-06-23 09:01:00,70.0,36.2,26.95,NE,51,0.0,0.0,29,0.00,CLR,,0.00,WeatherDisplay:10.37,2013-06-23 13:01:00,
2013-06-23 09:06:00,70.2,36.4,26.95,NE,51,0.0,0.0,29,0.00,CLR,,0.00,WeatherDisplay:10.37,2013-06-23 13:06:00,
2013-06-23 09:11:00,70.3,36.6,26.95,NE,51,0.0,0.0,29,0.00,CLR,,0.00,WeatherDisplay:10.37,2013-06-23 13:11:00,
2013-06-23 09:16:00,70.9,37.0,26.95,ENE,71,2.3,0.0,29,0.00,CLR,,0.00,WeatherDisplay:10.37,2013-06-23 13:16:00,
2013-06-23 09:21:00,71.8,35.0,26.95,ENE,71,0.0,0.0,26,0.00,CLR,,0.00,WeatherDisplay:10.37,2013-06-23 13:21:00,
2013-06-23 09:26:00,72.7,35.8,26.95,ENE,71,0.0,0.0,26,0.00,CLR,,0.00,WeatherDisplay:10.37,2013-06-23 13:26:00,
2013-06-23 09:31:00,73.4,36.4,26.95,East,81,0.0,0.0,26,0.00,CLR,,0.00,WeatherDisplay:10.37,2013-06-23 13:31:00,
2013-06-23 09:36:00,73.9,36.9,26.95,WNW,298,3.5,0.0,26,0.00,CLR,,0.00,WeatherDisplay:10.37,2013-06-23 13:36:00,
2013-06-23 09:41:00,74.8,37.6,26.95,ESE,112,2.3,0.0,26,0.00,CLR,,0.00,WeatherDisplay:10.37,2013-06-23 13:41:00,
2013-06-23 09:46:00,74.8,37.6,26.95,ESE,119,2.3,2.3,26,0.00,CLR,,0.00,WeatherDisplay:10.37,2013-06-23 13:46:00,
2013-06-23 09:51:00,75.2,36.9,26.95,ESE,120,0.0,0.0,25,0.00,CLR,,0.00,WeatherDisplay:10.37,2013-06-23 13:51:00,
2013-06-23 09:56:00,75.7,37.4,26.95,ESE,119,2.3,0.0,25,0.00,CLR,,0.00,WeatherDisplay:10.37,2013-06-23 13:56:00,
2013-06-23 10:01:00,76.6,38.2,26.95,ESE,119,2.3,0.0,25,0.00,CLR,,0.00,WeatherDisplay:10.37,2013-06-23 14:01:00,
2013-06-23 10:06:00,78.1,37.3,26.95,SW,233,2.3,0.0,23,0.00,CLR,,0.00,WeatherDisplay:10.37,2013-06-23 14:06:00,
2013-06-23 10:11:00,79.0,36.9,26.95,SE,132,0.0,0.0,22,0.00,CLR,,0.00,WeatherDisplay:10.37,2013-06-23 14:11:00,
2013-06-23 10:16:00,78.4,37.6,26.95,NNE,33,2.3,0.0,23,0.00,CLR,,0.00,WeatherDisplay:10.37,2013-06-23 14:16:00,
2013-06-23 10:21:00,78.8,40.0,26.95,SE,144,0.0,0.0,25,0.00,CLR,,0.00,WeatherDisplay:10.37,2013-06-23 14:21:00,
2013-06-23 10:26:00,78.6,37.7,26.95,WSW,247,3.5,0.0,23,0.00,CLR,,0.00,WeatherDisplay:10.37,2013-06-23 14:26:00,
2013-06-23 10:31:00,79.2,40.3,26.95,NW,307,2.3,0.0,25,0.00,CLR,,0.00,WeatherDisplay:10.37,2013-06-23 14:31:00,
2013-06-23 10:36:00,79.7,40.8,26.95,SW,226,3.5,0.0,25,0.00,CLR,,0.00,WeatherDisplay:10.37,2013-06-23 14:36:00,
2013-06-23 10:41:00,79.9,40.9,26.95,East,91,0.0,0.0,25,0.00,CLR,,0.00,WeatherDisplay:10.37,2013-06-23 14:41:00,
2013-06-23 10:46:00,80.4,41.4,26.95,East,91,0.0,0.0,25,0.00,CLR,,0.00,WeatherDisplay:10.37,2013-06-23 14:46:00,
2013-06-23 10:51:00,81.0,40.8,26.95,ENE,58,2.3,0.0,24,0.00,CLR,,0.00,WeatherDisplay:10.37,2013-06-23 14:51:00,
2013-06-23 10:56:00,81.7,41.4,26.95,ESE,111,2.3,0.0,24,0.00,CLR,,0.00,WeatherDisplay:10.37,2013-06-23 14:56:00,
2013-06-23 11:01:00,82.4,42.0,26.95,WNW,300,0.0,0.0,24,0.00,CLR,,0.00,WeatherDisplay:10.37,2013-06-23 15:01:00,
2013-06-23 11:06:00,82.9,42.4,26.95,NW,310,2.3,2.7,24,0.00,CLR,,0.00,WeatherDisplay:10.37,2013-06-23 15:06:00,
2013-06-23 11:11:00,83.8,39.7,26.95,ENE,71,4.6,0.0,21,0.00,CLR,,0.00,WeatherDisplay:10.37,2013-06-23 15:11:00,
2013-06-23 11:16:00,82.6,38.7,26.95,WSW,253,2.3,0.0,21,0.00,CLR,,0.00,WeatherDisplay:10.37,2013-06-23 15:16:00,
2013-06-23 11:21:00,82.9,39.0,26.95,WNW,300,2.3,2.3,21,0.00,CLR,,0.00,WeatherDisplay:10.37,2013-06-23 15:21:00,
2013-06-23 11:26:00,81.9,39.3,26.95,WNW,290,2.3,0.0,22,0.00,CLR,,0.00,WeatherDisplay:10.37,2013-06-23 15:26:00,
2013-06-23 11:31:00,81.3,38.8,26.95,WNW,290,2.3,0.0,22,0.00,CLR,,0.00,WeatherDisplay:10.37,2013-06-23 15:31:00,
2013-06-23 11:36:00,80.8,38.4,26.95,WNW,290,0.0,0.0,22,0.00,CLR,,0.00,WeatherDisplay:10.37,2013-06-23 15:36:00,
2013-06-23 11:41:00,80.6,40.5,26.95,WNW,290,0.0,0.0,24,0.00,CLR,,0.00,WeatherDisplay:10.37,2013-06-23 15:41:00,
2013-06-23 11:46:00,80.4,41.4,26.95,WNW,290,0.0,0.0,25,0.00,CLR,,0.00,WeatherDisplay:10.37,2013-06-23 15:46:00,
2013-06-23 11:51:00,80.2,41.2,26.95,WNW,290,0.0,0.0,25,0.00,CLR,,0.00,WeatherDisplay:10.37,2013-06-23 15:51:00,
2013-06-23 11:56:00,80.1,41.1,26.95,WNW,290,0.0,0.0,25,0.00,CLR,,0.00,WeatherDisplay:10.37,2013-06-23 15:56:00,
2013-06-23 12:01:00,79.9,40.9,26.95,WNW,290,0.0,0.0,25,0.00,CLR,,0.00,WeatherDisplay:10.37,2013-06-23 16:01:00,
2013-06-23 12:06:00,79.7,40.8,26.95,WNW,290,0.0,0.0,25,0.00,CLR,,0.00,WeatherDisplay:10.37,2013-06-23 16:06:00,
2013-06-23 12:11:00,79.7,40.8,26.95,WNW,290,0.0,0.0,25,0.00,CLR,,0.00,WeatherDisplay:10.37,2013-06-23 16:11:00,
2013-06-23 12:16:00,80.2,41.2,26.95,WNW,290,0.0,0.0,25,0.00,CLR,,0.00,WeatherDisplay:10.37,2013-06-23 16:16:00,
2013-06-23 12:21:00,81.0,40.8,26.95,ENE,69,0.0,0.0,24,0.00,CLR,,0.00,WeatherDisplay:10.37,2013-06-23 16:21:00,
2013-06-23 12:26:00,83.3,42.7,26.95,WNW,285,2.3,2.3,24,0.00,CLR,,0.00,WeatherDisplay:10.37,2013-06-23 16:26:00,
2013-06-23 12:31:00,83.8,43.2,26.95,WNW,285,2.3,0.0,24,0.00,CLR,,0.00,WeatherDisplay:10.37,2013-06-23 16:31:00,
2013-06-23 12:36:00,84.2,42.4,26.95,WNW,285,0.0,0.0,23,0.00,CLR,,0.00,WeatherDisplay:10.37,2013-06-23 16:36:00,
2013-06-23 12:41:00,85.1,43.1,26.95,SE,129,2.3,2.3,23,0.00,CLR,,0.00,WeatherDisplay:10.37,2013-06-23 16:41:00,
2013-06-23 12:46:00,85.6,43.6,26.95,ENE,76,3.5,3.5,23,0.00,CLR,,0.00,WeatherDisplay:10.37,2013-06-23 16:46:00,
2013-06-23 12:51:00,87.8,45.4,26.95,ESE,110,2.3,0.0,23,0.00,CLR,,0.00,WeatherDisplay:10.37,2013-06-23 16:51:00,
2013-06-23 12:56:00,88.0,45.5,26.95,ENE,69,0.0,0.0,23,0.00,CLR,,0.00,WeatherDisplay:10.37,2013-06-23 16:56:00,
2013-06-23 12:57:00,88.0,45.5,26.95,ESE,112,2.3,0.0,23,0.00,CLR,,0.00,WeatherDisplay:10.37,2013-06-23 16:57:00,
2013-06-23 12:58:00,88.2,45.7,26.95,SE,126,3.5,0.0,23,0.00,CLR,,0.00,WeatherDisplay:10.37,2013-06-23 16:58:00,
2013-06-23 12:59:00,88.2,45.7,26.95,SE,138,2.7,2.7,23,0.00,CLR,,0.00,WeatherDisplay:10.37,2013-06-23 16:59:00,
2013-06-23 13:04:00,88.3,45.8,26.95,South,176,3.5,3.5,23,0.00,CLR,,0.00,WeatherDisplay:10.37,2013-06-23 17:04:00,
2013-06-23 13:09:00,88.5,46.0,26.95,North,353,0.0,0.0,23,0.00,CLR,,0.00,WeatherDisplay:10.37,2013-06-23 17:09:00,
2013-06-23 13:14:00,89.2,46.6,26.95,North,353,0.0,0.0,23,0.00,CLR,,0.00,WeatherDisplay:10.37,2013-06-23 17:14:00,
2013-06-23 13:19:00,90.9,46.8,26.95,WNW,303,3.5,0.0,22,0.00,CLR,,0.00,WeatherDisplay:10.37,2013-06-23 17:19:00,
2013-06-23 13:24:00,90.1,46.2,26.95,NE,56,3.5,0.0,22,0.00,CLR,,0.00,WeatherDisplay:10.37,2013-06-23 17:24:00,
2013-06-23 13:29:00,88.7,46.1,26.95,East,85,2.3,0.0,23,0.00,CLR,,0.00,WeatherDisplay:10.37,2013-06-23 17:29:00,
2013-06-23 13:34:00,90.1,46.2,26.95,WNW,296,3.1,0.0,22,0.00,CLR,,0.00,WeatherDisplay:10.37,2013-06-23 17:34:00,
2013-06-23 13:39:00,91.6,47.4,26.95,South,183,2.3,0.0,22,0.00,CLR,,0.00,WeatherDisplay:10.37,2013-06-23 17:39:00,
2013-06-23 13:44:00,90.7,44.1,26.95,WNW,292,3.5,3.5,20,0.00,CLR,,0.00,WeatherDisplay:10.37,2013-06-23 17:44:00,
2013-06-23 13:49:00,90.9,46.8,26.95,NW,325,3.5,0.0,22,0.00,CLR,,0.00,WeatherDisplay:10.37,2013-06-23 17:49:00,
2013-06-23 13:54:00,90.3,46.3,26.95,NNW,332,3.5,3.5,22,0.00,CLR,,0.00,WeatherDisplay:10.37,2013-06-23 17:54:00,
2013-06-23 13:59:00,90.1,46.2,26.95,ESE,106,5.8,5.8,22,0.00,CLR,,0.00,WeatherDisplay:10.37,2013-06-23 17:59:00,
2013-06-23 14:04:00,90.5,46.5,26.95,SSW,197,3.5,0.0,22,0.00,CLR,,0.00,WeatherDisplay:10.37,2013-06-23 18:04:00,
2013-06-23 14:09:00,91.2,47.1,26.95,ENE,66,3.5,3.5,22,0.00,CLR,,0.00,WeatherDisplay:10.37,2013-06-23 18:09:00,
2013-06-23 14:14:00,92.8,48.4,26.95,WNW,299,5.8,0.0,22,0.00,CLR,,0.00,WeatherDisplay:10.37,2013-06-23 18:14:00,
2013-06-23 14:19:00,93.6,47.8,26.95,NE,42,3.5,0.0,21,0.00,CLR,,0.00,WeatherDisplay:10.37,2013-06-23 18:19:00,
2013-06-23 14:24:00,94.6,48.6,26.95,SW,219,3.1,0.0,21,0.00,CLR,,0.00,WeatherDisplay:10.37,2013-06-23 18:24:00,
2013-06-23 14:29:00,92.1,47.8,26.95,NE,46,0.0,0.0,22,0.00,CLR,,0.00,WeatherDisplay:10.37,2013-06-23 18:29:00,
2013-06-23 14:34:00,91.6,47.4,26.95,SW,216,3.6,3.6,22,0.00,CLR,,0.00,WeatherDisplay:10.37,2013-06-23 18:34:00,
2013-06-23 14:39:00,90.3,46.3,26.95,SE,138,3.5,3.5,22,0.00,CLR,,0.00,WeatherDisplay:10.37,2013-06-23 18:39:00,
2013-06-23 14:44:00,90.1,43.7,26.95,SW,218,3.5,0.0,20,0.00,CLR,,0.00,WeatherDisplay:10.37,2013-06-23 18:44:00,
2013-06-23 14:49:00,89.8,43.4,26.95,WSW,253,3.5,3.5,20,0.00,CLR,,0.00,WeatherDisplay:10.37,2013-06-23 18:49:00,
2013-06-23 14:54:00,90.1,43.7,26.95,WSW,251,0.0,0.0,20,0.00,CLR,,0.00,WeatherDisplay:10.37,2013-06-23 18:54:00,
2013-06-23 14:59:00,89.8,43.4,26.95,WSW,243,5.8,5.8,20,0.00,CLR,,0.00,WeatherDisplay:10.37,2013-06-23 18:59:00,
2013-06-23 15:04:00,89.6,43.2,26.95,SSW,208,0.0,0.0,20,0.00,CLR,,0.00,WeatherDisplay:10.37,2013-06-23 19:04:00,
2013-06-23 15:09:00,90.0,43.5,26.95,NW,320,2.3,0.0,20,0.00,CLR,,0.00,WeatherDisplay:10.37,2013-06-23 19:09:00,
2013-06-23 15:14:00,90.1,43.7,26.95,East,83,3.5,3.5,20,0.00,CLR,,0.00,WeatherDisplay:10.37,2013-06-23 19:14:00,
2013-06-23 15:19:00,90.0,43.5,26.95,ENE,73,4.6,4.6,20,0.00,CLR,,0.00,WeatherDisplay:10.37,2013-06-23 19:19:00,
2013-06-23 15:24:00,90.0,43.5,26.95,NW,312,2.3,0.0,20,0.00,CLR,,0.00,WeatherDisplay:10.37,2013-06-23 19:24:00,
2013-06-23 15:29:00,90.1,43.7,26.95,NNE,24,3.5,3.5,20,0.00,CLR,,0.00,WeatherDisplay:10.37,2013-06-23 19:29:00,
2013-06-23 15:34:00,89.8,43.4,26.95,NE,34,5.4,5.4,20,0.00,CLR,,0.00,WeatherDisplay:10.37,2013-06-23 19:34:00,
2013-06-23 15:39:00,89.8,43.4,26.95,WNW,302,3.5,3.5,20,0.00,CLR,,0.00,WeatherDisplay:10.37,2013-06-23 19:39:00,
2013-06-23 15:44:00,89.8,43.4,26.95,NW,322,5.8,5.8,20,0.00,CLR,,0.00,WeatherDisplay:10.37,2013-06-23 19:44:00,
2013-06-23 15:49:00,90.0,43.5,26.95,WSW,255,2.3,0.0,20,0.00,CLR,,0.00,WeatherDisplay:10.37,2013-06-23 19:49:00,
2013-06-23 15:54:00,90.1,43.7,26.95,SSW,208,3.5,0.0,20,0.00,CLR,,0.00,WeatherDisplay:10.37,2013-06-23 19:54:00,
2013-06-23 15:59:00,89.6,43.2,26.95,WSW,257,3.5,3.5,20,0.00,CLR,,0.00,WeatherDisplay:10.37,2013-06-23 19:59:00,
2013-06-23 16:04:00,89.4,43.1,26.95,SSW,210,3.5,3.5,20,0.00,CLR,,0.00,WeatherDisplay:10.37,2013-06-23 20:04:00,
2013-06-23 16:09:00,89.4,43.1,26.95,WSW,244,3.5,3.6,20,0.00,CLR,,0.00,WeatherDisplay:10.37,2013-06-23 20:09:00,
2013-06-23 16:14:00,89.6,43.2,26.95,SSE,161,3.5,3.6,20,0.00,CLR,,0.00,WeatherDisplay:10.37,2013-06-23 20:14:00,
2013-06-23 16:19:00,89.4,43.1,26.95,ENE,74,2.3,0.0,20,0.00,CLR,,0.00,WeatherDisplay:10.37,2013-06-23 20:19:00,
2013-06-23 16:24:00,89.2,42.9,26.95,South,177,2.3,0.0,20,0.00,CLR,,0.00,WeatherDisplay:10.37,2013-06-23 20:24:00,
2013-06-23 16:29:00,89.2,42.9,26.95,WSW,253,3.5,0.0,20,0.00,CLR,,0.00,WeatherDisplay:10.37,2013-06-23 20:29:00,
2013-06-23 16:34:00,89.8,43.4,26.95,WSW,251,5.8,5.8,20,0.00,CLR,,0.00,WeatherDisplay:10.37,2013-06-23 20:34:00,
2013-06-23 16:39:00,90.1,43.7,26.95,WNW,294,4.6,4.6,20,0.00,CLR,,0.00,WeatherDisplay:10.37,2013-06-23 20:39:00,
2013-06-23 16:44:00,90.3,43.8,26.95,WSW,250,5.8,5.8,20,0.00,CLR,,0.00,WeatherDisplay:10.37,2013-06-23 20:44:00,
2013-06-23 16:49:00,90.1,43.7,26.95,WNW,288,3.5,0.0,20,0.00,CLR,,0.00,WeatherDisplay:10.37,2013-06-23 20:49:00,
2013-06-23 16:54:00,89.8,43.4,26.95,WNW,288,3.5,4.5,20,0.00,CLR,,0.00,WeatherDisplay:10.37,2013-06-23 20:54:00,
2013-06-23 16:59:00,89.6,43.2,26.95,West,267,3.5,3.5,20,0.00,CLR,,0.00,WeatherDisplay:10.37,2013-06-23 20:59:00,
2013-06-23 17:04:00,89.2,42.9,26.95,East,100,3.6,3.6,20,0.00,CLR,,0.00,WeatherDisplay:10.37,2013-06-23 21:04:00,
2013-06-23 17:09:00,89.1,42.8,26.95,West,269,2.3,0.0,20,0.00,CLR,,0.00,WeatherDisplay:10.37,2013-06-23 21:09:00,
2013-06-23 17:14:00,88.9,42.6,26.95,West,260,0.0,0.0,20,0.00,CLR,,0.00,WeatherDisplay:10.37,2013-06-23 21:14:00,
2013-06-23 17:19:00,88.5,42.3,26.95,North,4,2.3,0.0,20,0.00,CLR,,0.00,WeatherDisplay:10.37,2013-06-23 21:19:00,
2013-06-23 17:24:00,88.2,42.0,26.95,NE,44,5.8,5.8,20,0.00,CLR,,0.00,WeatherDisplay:10.37,2013-06-23 21:24:00,
2013-06-23 17:29:00,88.0,45.5,26.95,ENE,74,3.5,0.0,23,0.00,CLR,,0.00,WeatherDisplay:10.37,2013-06-23 21:29:00,
2013-06-23 17:34:00,88.2,42.0,26.95,WNW,282,3.5,3.5,20,0.00,CLR,,0.00,WeatherDisplay:10.37,2013-06-23 21:34:00,
2013-06-23 17:39:00,88.2,42.0,26.95,NNW,341,2.3,0.0,20,0.00,CLR,,0.00,WeatherDisplay:10.37,2013-06-23 21:39:00,
2013-06-23 17:44:00,87.8,41.7,26.95,SW,217,3.5,0.0,20,0.00,CLR,,0.00,WeatherDisplay:10.37,2013-06-23 21:44:00,
2013-06-23 17:49:00,87.3,42.6,26.95,SW,227,3.5,0.0,21,0.00,CLR,,0.00,WeatherDisplay:10.37,2013-06-23 21:49:00,
2013-06-23 17:54:00,86.7,42.1,26.95,SSW,209,3.5,3.5,21,0.00,CLR,,0.00,WeatherDisplay:10.37,2013-06-23 21:54:00,
2013-06-23 17:59:00,86.4,41.8,26.95,WSW,248,3.5,0.0,21,0.00,CLR,,0.00,WeatherDisplay:10.37,2013-06-23 21:59:00,
2013-06-23 18:04:00,86.2,41.7,26.95,SW,236,3.5,3.5,21,0.00,CLR,,0.00,WeatherDisplay:10.37,2013-06-23 22:04:00,
2013-06-23 18:09:00,86.2,41.7,26.95,WSW,244,3.5,3.5,21,0.00,CLR,,0.00,WeatherDisplay:10.37,2013-06-23 22:09:00,
2013-06-23 18:14:00,86.0,41.5,26.95,North,357,3.5,0.0,21,0.00,CLR,,0.00,WeatherDisplay:10.37,2013-06-23 22:14:00,
2013-06-23 18:19:00,85.8,41.4,26.95,NE,55,0.0,0.0,21,0.00,CLR,,0.00,WeatherDisplay:10.37,2013-06-23 22:19:00,
2013-06-23 18:24:00,85.6,41.2,26.95,WNW,297,3.5,3.5,21,0.00,CLR,,0.00,WeatherDisplay:10.37,2013-06-23 22:24:00,
2013-06-23 18:29:00,85.6,41.2,26.95,WSW,237,3.5,0.0,21,0.00,CLR,,0.00,WeatherDisplay:10.37,2013-06-23 22:29:00,
2013-06-23 18:34:00,85.8,41.4,26.95,SW,234,2.7,0.0,21,0.00,CLR,,0.00,WeatherDisplay:10.37,2013-06-23 22:34:00,
2013-06-23 18:39:00,86.0,41.5,26.95,WNW,292,3.5,0.0,21,0.00,CLR,,0.00,WeatherDisplay:10.37,2013-06-23 22:39:00,
2013-06-23 18:44:00,86.0,41.5,26.95,South,184,3.5,0.0,21,0.00,CLR,,0.00,WeatherDisplay:10.37,2013-06-23 22:44:00,
2013-06-23 18:49:00,86.0,41.5,26.95,SSW,203,3.5,0.0,21,0.00,CLR,,0.00,WeatherDisplay:10.37,2013-06-23 22:49:00,
2013-06-23 18:54:00,85.6,41.2,26.95,NNE,12,2.7,0.0,21,0.00,CLR,,0.00,WeatherDisplay:10.37,2013-06-23 22:54:00,
2013-06-23 18:59:00,85.1,40.8,26.95,ENE,64,2.3,0.0,21,0.00,CLR,,0.00,WeatherDisplay:10.37,2013-06-23 22:59:00,
2013-06-23 19:04:00,84.6,40.3,26.95,NNW,340,3.5,0.0,21,0.00,CLR,,0.00,WeatherDisplay:10.37,2013-06-23 23:04:00,
2013-06-23 19:09:00,84.0,39.9,26.95,SW,221,5.8,0.0,21,0.00,CLR,,0.00,WeatherDisplay:10.37,2013-06-23 23:09:00,
2013-06-23 19:14:00,83.7,39.6,26.95,West,270,3.5,0.0,21,0.00,CLR,,0.00,WeatherDisplay:10.37,2013-06-23 23:14:00,
2013-06-23 19:19:00,83.3,39.3,26.95,East,85,4.6,0.0,21,0.00,CLR,,0.00,WeatherDisplay:10.37,2013-06-23 23:19:00,
2013-06-23 19:24:00,83.1,39.1,26.95,NW,313,3.5,3.5,21,0.00,CLR,,0.00,WeatherDisplay:10.37,2013-06-23 23:24:00,
2013-06-23 19:29:00,82.9,39.0,26.95,North,5,3.5,0.0,21,0.00,CLR,,0.00,WeatherDisplay:10.37,2013-06-23 23:29:00,
2013-06-23 19:34:00,82.6,42.1,26.95,NNW,336,3.5,0.0,24,0.00,CLR,,0.00,WeatherDisplay:10.37,2013-06-23 23:34:00,
2013-06-23 19:39:00,82.6,38.7,26.95,SSW,208,3.6,0.0,21,0.00,CLR,,0.00,WeatherDisplay:10.37,2013-06-23 23:39:00,
2013-06-23 19:44:00,82.4,38.5,26.95,SE,124,2.3,0.0,21,0.00,CLR,,0.00,WeatherDisplay:10.37,2013-06-23 23:44:00,
2013-06-23 19:49:00,82.0,39.4,26.95,NE,35,0.0,0.0,22,0.00,CLR,,0.00,WeatherDisplay:10.37,2013-06-23 23:49:00,
2013-06-23 19:54:00,81.9,39.3,26.95,SW,226,2.3,0.0,22,0.00,CLR,,0.00,WeatherDisplay:10.37,2013-06-23 23:54:00,
2013-06-23 19:59:00,81.7,39.1,26.95,ENE,60,3.5,0.0,22,0.00,CLR,,0.00,WeatherDisplay:10.37,2013-06-23 23:59:00,
2013-06-23 20:04:00,81.5,39.0,26.95,NNW,341,2.3,0.0,22,0.00,CLR,,0.00,WeatherDisplay:10.37,2013-06-24 00:04:00,
2013-06-23 20:09:00,81.1,40.9,26.95,North,353,2.3,0.0,24,0.00,CLR,,0.00,WeatherDisplay:10.37,2013-06-24 00:09:00,
2013-06-23 20:14:00,81.0,38.5,26.95,East,93,3.5,0.0,22,0.00,CLR,,0.00,WeatherDisplay:10.37,2013-06-24 00:14:00,
2013-06-23 20:19:00,81.0,38.5,26.95,North,5,2.3,0.0,22,0.00,CLR,,0.00,WeatherDisplay:10.37,2013-06-24 00:19:00,
2013-06-23 20:24:00,80.6,38.2,26.95,North,9,2.7,0.0,22,0.00,CLR,,0.00,WeatherDisplay:10.37,2013-06-24 00:24:00,
2013-06-23 20:29:00,80.4,38.1,26.95,NNE,17,0.0,0.0,22,0.00,CLR,,0.00,WeatherDisplay:10.37,2013-06-24 00:29:00,
2013-06-23 20:34:00,80.2,37.9,26.95,South,185,3.6,0.0,22,0.00,CLR,,0.00,WeatherDisplay:10.37,2013-06-24 00:34:00,
2013-06-23 20:39:00,80.1,37.8,26.95,ESE,122,2.3,0.0,22,0.00,CLR,,0.00,WeatherDisplay:10.37,2013-06-24 00:39:00,
2013-06-23 20:44:00,79.9,37.6,26.95,NW,305,3.5,0.0,22,0.00,CLR,,0.00,WeatherDisplay:10.37,2013-06-24 00:44:00,
2013-06-23 20:49:00,79.7,37.5,26.95,NW,326,0.0,0.0,22,0.00,CLR,,0.00,WeatherDisplay:10.37,2013-06-24 00:49:00,
2013-06-23 20:54:00,79.5,37.3,26.95,East,90,3.5,0.0,22,0.00,CLR,,0.00,WeatherDisplay:10.37,2013-06-24 00:54:00,
2013-06-23 20:59:00,79.3,37.2,26.95,ENE,64,3.5,0.0,22,0.00,CLR,,0.00,WeatherDisplay:10.37,2013-06-24 00:59:00,
2013-06-23 21:04:00,79.2,37.0,26.95,South,190,4.6,0.0,22,0.00,CLR,,0.00,WeatherDisplay:10.37,2013-06-24 01:04:00,
2013-06-23 21:09:00,79.0,36.9,26.95,ESE,117,3.5,0.0,22,0.00,CLR,,0.00,WeatherDisplay:10.37,2013-06-24 01:09:00,
2013-06-23 21:14:00,78.8,36.7,26.95,NNE,20,0.0,0.0,22,0.00,CLR,,0.00,WeatherDisplay:10.37,2013-06-24 01:14:00,
2013-06-23 21:19:00,78.6,37.7,26.95,North,357,3.5,0.0,23,0.00,CLR,,0.00,WeatherDisplay:10.37,2013-06-24 01:19:00,
2013-06-23 21:24:00,78.4,37.6,26.95,ESE,108,2.3,0.0,23,0.00,CLR,,0.00,WeatherDisplay:10.37,2013-06-24 01:24:00,
2013-06-23 21:29:00,78.3,37.4,26.95,NE,35,3.5,0.0,23,0.00,CLR,,0.00,WeatherDisplay:10.37,2013-06-24 01:29:00,
2013-06-23 21:34:00,78.3,37.4,26.95,NE,39,0.0,0.0,23,0.00,CLR,,0.00,WeatherDisplay:10.37,2013-06-24 01:34:00,
2013-06-23 21:39:00,78.1,37.3,26.95,North,10,2.3,0.0,23,0.00,CLR,,0.00,WeatherDisplay:10.37,2013-06-24 01:39:00,
2013-06-23 21:44:00,78.1,37.3,26.95,North,357,2.3,0.0,23,0.00,CLR,,0.00,WeatherDisplay:10.37,2013-06-24 01:44:00,
2013-06-23 21:49:00,78.1,37.3,26.95,NNE,21,0.0,0.0,23,0.00,CLR,,0.00,WeatherDisplay:10.37,2013-06-24 01:49:00,
2013-06-23 21:54:00,78.1,37.3,26.95,NNE,21,0.0,0.0,23,0.00,CLR,,0.00,WeatherDisplay:10.37,2013-06-24 01:54:00,
2013-06-23 21:59:00,77.9,39.2,26.95,ESE,114,2.3,0.0,25,0.00,CLR,,0.00,WeatherDisplay:10.37,2013-06-24 01:59:00,
2013-06-23 22:04:00,77.7,39.1,26.95,ESE,105,2.3,0.0,25,0.00,CLR,,0.00,WeatherDisplay:10.37,2013-06-24 02:04:00,
2013-06-23 22:09:00,77.5,38.9,26.95,North,357,2.2,2.2,25,0.00,CLR,,0.00,WeatherDisplay:10.37,2013-06-24 02:09:00,
2013-06-23 22:14:00,77.5,38.9,26.95,WNW,301,2.3,0.0,25,0.00,CLR,,0.00,WeatherDisplay:10.37,2013-06-24 02:14:00,
2013-06-23 22:19:00,77.5,38.9,26.95,NW,310,0.0,0.0,25,0.00,CLR,,0.00,WeatherDisplay:10.37,2013-06-24 02:19:00,
2013-06-23 22:24:00,77.4,38.8,26.95,NW,310,0.0,0.0,25,0.00,CLR,,0.00,WeatherDisplay:10.37,2013-06-24 02:24:00,
2013-06-23 22:29:00,77.2,38.6,26.95,NE,48,3.5,0.0,25,0.00,CLR,,0.00,WeatherDisplay:10.37,2013-06-24 02:29:00,
2013-06-23 22:34:00,77.0,38.5,26.95,ENE,67,3.5,0.0,25,0.00,CLR,,0.00,WeatherDisplay:10.37,2013-06-24 02:34:00,
2013-06-23 22:39:00,76.8,38.3,26.95,SW,222,0.0,0.0,25,0.00,CLR,,0.00,WeatherDisplay:10.37,2013-06-24 02:39:00,
2013-06-23 22:44:00,76.6,38.2,26.95,ESE,111,0.0,0.0,25,0.00,CLR,,0.00,WeatherDisplay:10.37,2013-06-24 02:44:00,
2013-06-23 22:49:00,76.5,38.0,26.95,ESE,112,0.0,0.0,25,0.00,CLR,,0.00,WeatherDisplay:10.37,2013-06-24 02:49:00,
2013-06-23 22:54:00,76.5,40.9,26.95,North,2,2.3,0.0,28,0.00,CLR,,0.00,WeatherDisplay:10.37,2013-06-24 02:54:00,
2013-06-23 22:59:00,76.3,37.9,26.95,North,2,0.0,0.0,25,0.00,CLR,,0.00,WeatherDisplay:10.37,2013-06-24 02:59:00,
2013-06-23 23:04:00,76.1,37.7,26.95,SE,125,3.5,0.0,25,0.00,CLR,,0.00,WeatherDisplay:10.37,2013-06-24 03:04:00,
2013-06-23 23:09:00,75.9,37.6,26.95,SE,125,2.3,0.0,25,0.00,CLR,,0.00,WeatherDisplay:10.37,2013-06-24 03:09:00,
2013-06-23 23:14:00,75.7,40.3,26.95,NE,36,2.3,0.0,28,0.00,CLR,,0.00,WeatherDisplay:10.37,2013-06-24 03:14:00,
2013-06-23 23:19:00,75.6,40.2,26.95,NE,36,0.0,0.0,28,0.00,CLR,,0.00,WeatherDisplay:10.37,2013-06-24 03:19:00,
2013-06-23 23:24:00,75.6,40.2,26.95,NNE,26,2.3,0.0,28,0.00,CLR,,0.00,WeatherDisplay:10.37,2013-06-24 03:24:00,
2013-06-23 23:29:00,75.6,40.2,26.95,NW,307,3.1,0.0,28,0.00,CLR,,0.00,WeatherDisplay:10.37,2013-06-24 03:29:00,
2013-06-23 23:34:00,75.7,40.3,26.95,West,274,2.3,0.0,28,0.00,CLR,,0.00,WeatherDisplay:10.37,2013-06-24 03:34:00,
2013-06-23 23:39:00,75.6,40.2,26.95,NE,52,0.0,0.0,28,0.00,CLR,,0.00,WeatherDisplay:10.37,2013-06-24 03:39:00,
2013-06-23 23:44:00,75.6,40.2,26.95,ENE,76,0.0,0.0,28,0.00,CLR,,0.00,WeatherDisplay:10.37,2013-06-24 03:44:00,
2013-06-23 23:49:00,75.4,40.0,26.95,ENE,72,0.0,0.0,28,0.00,CLR,,0.00,WeatherDisplay:10.37,2013-06-24 03:49:00,
2013-06-23 23:54:00,75.4,40.0,26.95,NW,325,5.8,0.0,28,0.00,CLR,,0.00,WeatherDisplay:10.37,2013-06-24 03:54:00,
2013-06-23 23:59:00,75.4,40.0,26.95,North,3,0.0,0.0,28,0.00,CLR,,0.00,WeatherDisplay:10.37,2013-06-24 03:59:00,